Time;durP1;ratioP1;P1;durP2;ratioP2;P2;SDS_P1;SDS_P2;PMS_P1;PMS_P2;Temp;Humidity;BMP_temperature;BMP_pressure;BME280_temperature;BME280_humidity;BME280_pressure;Samples;Min_cycle;Max_cycle;Signal;HPM_P1;HPM_P2
2021/03/04 00:01:32;;;;;;;3.15;1.40;;;22.70;57.90;;;;;;4149927;28;20040;-51
2021/03/04 00:03:34;;;;;;;2.42;1.33;;;22.70;57.90;;;;;;4151912;28;20484;-54
2021/03/04 00:05:37;;;;;;;2.78;1.67;;;22.70;57.90;;;;;;4150462;28;20071;-53
2021/03/04 00:07:40;;;;;;;3.97;1.50;;;22.70;58.00;;;;;;4155232;28;20032;-51
2021/03/04 00:09:42;;;;;;;3.25;1.65;;;22.70;57.80;;;;;;4157142;28;20571;-54
2021/03/04 00:11:44;;;;;;;2.20;1.08;;;22.70;57.80;;;;;;4158468;28;20416;-52
2021/03/04 00:13:46;;;;;;;2.70;1.38;;;22.70;58.20;;;;;;4155998;28;20129;-48
2021/03/04 00:15:50;;;;;;;3.80;1.42;;;22.70;57.80;;;;;;4158934;28;20323;-50
2021/03/04 00:17:52;;;;;;;3.03;1.58;;;22.70;57.80;;;;;;4151581;28;20041;-52
2021/03/04 00:19:54;;;;;;;3.05;1.40;;;22.70;57.90;;;;;;4155961;28;20033;-50
2021/03/04 00:21:59;;;;;;;2.47;1.50;;;22.80;57.90;;;;;;4156122;28;21492;-53
2021/03/04 00:24:02;;;;;;;4.03;1.40;;;22.70;57.80;;;;;;4155113;28;20047;-51
2021/03/04 00:26:04;;;;;;;3.90;1.52;;;22.70;57.80;;;;;;4153114;28;20542;-53
2021/03/04 00:28:06;;;;;;;3.25;1.55;;;22.80;57.90;;;;;;4155478;28;20421;-49
2021/03/04 00:30:10;;;;;;;2.90;1.50;;;22.80;57.90;;;;;;4153417;28;20311;-51
2021/03/04 00:32:12;;;;;;;3.95;1.65;;;22.80;57.80;;;;;;4156816;28;20044;-49
2021/03/04 00:34:14;;;;;;;4.20;2.00;;;22.80;57.90;;;;;;4155077;28;20037;-50
2021/03/04 00:36:17;;;;;;;3.90;1.83;;;22.80;57.80;;;;;;4152090;28;20093;-54
2021/03/04 00:38:19;;;;;;;3.28;1.73;;;22.80;57.90;;;;;;4152086;28;21187;-52
2021/03/04 00:40:22;;;;;;;3.15;1.20;;;22.80;57.80;;;;;;4154542;28;20451;-52
2021/03/04 00:42:24;;;;;;;2.67;1.52;;;22.80;57.80;;;;;;4152621;28;20056;-49
2021/03/04 00:44:27;;;;;;;3.05;1.52;;;22.80;57.80;;;;;;4153069;28;20531;-53
2021/03/04 00:46:29;;;;;;;2.40;1.40;;;22.80;57.80;;;;;;4152897;28;20029;-50
2021/03/04 00:48:31;;;;;;;4.32;1.83;;;22.90;57.80;;;;;;4149881;28;20028;-50
2021/03/04 00:50:33;;;;;;;3.47;1.50;;;22.90;57.80;;;;;;4150673;28;20050;-51
2021/03/04 00:52:35;;;;;;;4.45;1.85;;;22.90;57.70;;;;;;4150171;28;20048;-49
2021/03/04 00:54:37;;;;;;;3.30;1.60;;;22.90;57.70;;;;;;4153436;28;20041;-48
2021/03/04 00:56:39;;;;;;;4.72;2.20;;;23.00;57.70;;;;;;4149175;28;20066;-52
2021/03/04 00:58:42;;;;;;;2.75;1.48;;;22.90;57.70;;;;;;4168897;28;20097;-50
2021/03/04 01:00:44;;;;;;;3.70;1.70;;;23.00;57.60;;;;;;4147656;28;20071;-47
2021/03/04 01:02:46;;;;;;;3.13;1.63;;;23.00;57.60;;;;;;4152004;28;20144;-50
2021/03/04 01:04:48;;;;;;;3.55;1.65;;;23.00;57.60;;;;;;4154301;28;20124;-50
2021/03/04 01:06:50;;;;;;;5.00;1.90;;;23.00;57.50;;;;;;4153861;28;20199;-51
2021/03/04 01:08:52;;;;;;;3.83;1.70;;;23.00;58.00;;;;;;4152447;28;20405;-49
2021/03/04 01:10:54;;;;;;;5.80;1.75;;;23.00;57.40;;;;;;4152524;28;20036;-45
2021/03/04 01:12:56;;;;;;;5.20;1.77;;;23.00;57.40;;;;;;4154622;28;20150;-51
2021/03/04 01:14:58;;;;;;;5.13;1.63;;;23.00;57.40;;;;;;4154681;28;20064;-53
2021/03/04 01:17:00;;;;;;;4.25;1.80;;;23.00;57.40;;;;;;4152643;28;20067;-48
2021/03/04 01:19:02;;;;;;;5.25;2.03;;;23.00;57.30;;;;;;4154754;28;20583;-48
2021/03/04 01:21:05;;;;;;;2.72;1.52;;;23.00;57.20;;;;;;4155586;28;20049;-48
2021/03/04 01:23:08;;;;;;;3.65;1.73;;;23.10;57.20;;;;;;4158551;28;20139;-51
2021/03/04 01:25:11;;;;;;;3.20;1.95;;;23.10;57.20;;;;;;4163721;28;20088;-55
2021/03/04 01:27:13;;;;;;;;;;;23.10;57.10;;;;;;4160332;28;20669;-49
2021/03/04 01:29:14;;;;;;;3.45;1.50;;;23.10;57.10;;;;;;4157442;28;20413;-55
2021/03/04 01:31:17;;;;;;;3.50;1.58;;;23.10;57.10;;;;;;4161974;28;20112;-53
2021/03/04 01:33:19;;;;;;;4.00;1.80;;;23.10;57.10;;;;;;4162591;28;20521;-51
2021/03/04 01:35:22;;;;;;;4.13;1.42;;;23.10;57.10;;;;;;4161414;28;20151;-53
2021/03/04 01:37:24;;;;;;;3.40;1.92;;;23.20;57.00;;;;;;4162198;28;20071;-47
2021/03/04 01:39:26;;;;;;;4.53;2.10;;;23.20;57.00;;;;;;4157489;28;20131;-53
2021/03/04 01:41:28;;;;;;;3.45;1.88;;;23.20;56.90;;;;;;4153291;28;20087;-50
2021/03/04 01:43:30;;;;;;;4.47;2.00;;;23.20;56.90;;;;;;4155545;28;20051;-49
2021/03/04 01:45:32;;;;;;;3.97;1.75;;;23.20;56.90;;;;;;4156879;28;20058;-47
2021/03/04 01:47:36;;;;;;;3.58;1.77;;;23.20;56.90;;;;;;4154407;28;20140;-47
2021/03/04 01:49:38;;;;;;;2.13;1.50;;;23.20;56.90;;;;;;4159267;28;20031;-49
2021/03/04 01:51:40;;;;;;;5.20;1.80;;;23.30;56.80;;;;;;4161173;28;20222;-53
2021/03/04 01:53:43;;;;;;;3.87;2.00;;;23.30;56.80;;;;;;4160015;28;21185;-47
2021/03/04 01:55:46;;;;;;;3.63;1.60;;;23.30;56.80;;;;;;4161850;28;20040;-51
2021/03/04 01:57:48;;;;;;;2.67;1.63;;;23.30;56.80;;;;;;4162945;28;20111;-50
2021/03/04 01:59:50;;;;;;;4.25;2.08;;;23.40;56.90;;;;;;4158189;28;20045;-48
2021/03/04 02:01:52;;;;;;;2.30;1.60;;;23.40;56.80;;;;;;4161319;28;20057;-49
2021/03/04 02:03:55;;;;;;;3.90;1.98;;;23.40;56.80;;;;;;4162866;28;20428;-49
2021/03/04 02:05:57;;;;;;;3.55;2.00;;;23.40;56.70;;;;;;4161260;28;20311;-49
2021/03/04 02:08:22;;;;;;;3.22;1.95;;;23.40;56.70;;;;;;4161407;28;20479;-47
2021/03/04 02:11:05;;;;;;;5.18;2.30;;;23.40;56.60;;;;;;4161265;28;20112;-47
2021/03/04 02:13:34;;;;;;;3.70;2.25;;;23.50;56.60;;;;;;4158499;28;20055;-50
2021/03/04 02:15:48;;;;;;;3.55;1.77;;;23.50;56.40;;;;;;4154869;28;20040;-47
2021/03/04 02:17:53;;;;;;;4.00;2.30;;;23.50;56.40;;;;;;4161635;28;21221;-48
2021/03/04 02:20:39;;;;;;;4.10;1.65;;;23.50;56.20;;;;;;4158380;28;20041;-51
2021/03/04 02:22:53;;;;;;;2.45;1.67;;;23.60;56.40;;;;;;4176846;28;21133;-46
2021/03/04 02:25:16;;;;;;;4.63;2.10;;;23.50;56.40;;;;;;4160061;28;20099;-49
2021/03/04 02:27:19;;;;;;;;;;;23.60;56.30;;;;;;4159349;28;20815;-50
2021/03/04 02:29:23;;;;;;;3.92;2.05;;;23.60;56.30;;;;;;4161653;28;19974;-46
2021/03/04 02:31:30;;;;;;;3.42;1.80;;;23.60;56.30;;;;;;4160026;28;20264;-52
2021/03/04 02:33:34;;;;;;;4.53;2.03;;;23.60;56.60;;;;;;4159271;28;20850;-48
2021/03/04 02:35:37;;;;;;;5.75;2.50;;;23.70;56.30;;;;;;4159765;28;20111;-52
2021/03/04 02:37:44;;;;;;;2.75;1.90;;;23.70;56.20;;;;;;4162388;28;20044;-44
2021/03/04 02:39:49;;;;;;;4.25;2.20;;;23.70;56.20;;;;;;4157843;28;20549;-52
2021/03/04 02:41:53;;;;;;;3.83;2.00;;;23.70;56.60;;;;;;4160273;28;20803;-47
2021/03/04 02:43:56;;;;;;;4.05;1.98;;;23.70;55.90;;;;;;4157236;28;20286;-52
2021/03/04 02:46:00;;;;;;;5.25;2.63;;;23.80;56.00;;;;;;4160222;28;20305;-52
2021/03/04 02:48:03;;;;;;;3.95;2.00;;;23.80;55.90;;;;;;4157650;28;20700;-49
2021/03/04 02:50:08;;;;;;;3.20;2.08;;;23.80;55.80;;;;;;4157554;28;20078;-48
2021/03/04 02:52:11;;;;;;;4.65;2.47;;;23.80;55.80;;;;;;4161374;28;20055;-46
2021/03/04 02:54:14;;;;;;;2.97;1.85;;;23.90;55.70;;;;;;4154635;28;20040;-47
2021/03/04 02:56:16;;;;;;;2.90;1.95;;;23.90;55.70;;;;;;4158542;28;20048;-49
2021/03/04 02:58:20;;;;;;;4.63;2.53;;;23.90;56.20;;;;;;4161077;28;20040;-49
2021/03/04 03:00:23;;;;;;;;;;;24.00;56.30;;;;;;4159392;28;20033;-47
2021/03/04 03:02:27;;;;;;;4.30;2.30;;;24.00;55.50;;;;;;4160475;28;19932;-48
2021/03/04 03:04:30;;;;;;;4.03;2.47;;;24.00;55.50;;;;;;4160871;28;20033;-48
2021/03/04 03:06:37;;;;;;;4.32;2.22;;;24.00;55.40;;;;;;4157961;28;20104;-54
2021/03/04 03:08:40;;;;;;;3.65;2.30;;;24.00;55.40;;;;;;4161695;28;20083;-51
2021/03/04 03:10:47;;;;;;;3.70;2.38;;;24.00;55.30;;;;;;4158466;28;21629;-52
2021/03/04 03:12:50;;;;;;;4.53;2.40;;;24.10;55.30;;;;;;4161559;28;20409;-48
2021/03/04 03:14:52;;;;;;;4.20;2.17;;;24.10;55.10;;;;;;4159360;28;20878;-50
2021/03/04 03:16:54;;;;;;;4.15;2.17;;;24.10;55.00;;;;;;4159842;28;20772;-50
2021/03/04 03:18:57;;;;;;;5.05;2.35;;;24.10;55.20;;;;;;4160473;28;20556;-50
2021/03/04 03:20:59;;;;;;;4.38;2.45;;;24.20;55.10;;;;;;4158017;28;20044;-44
2021/03/04 03:23:01;;;;;;;4.35;2.28;;;24.20;55.00;;;;;;4175063;28;20040;-45
2021/03/04 03:25:10;;;;;;;3.95;2.33;;;24.20;54.80;;;;;;4159478;28;20031;-45
2021/03/04 03:27:12;;;;;;;6.53;2.80;;;24.20;54.80;;;;;;4160212;28;21609;-51
2021/03/04 03:29:15;;;;;;;4.35;2.35;;;24.30;54.80;;;;;;4156716;28;21541;-48
2021/03/04 03:31:21;;;;;;;4.38;2.60;;;24.30;54.80;;;;;;4158894;28;20123;-48
2021/03/04 03:33:23;;;;;;;4.20;2.47;;;24.30;54.70;;;;;;4154155;28;20044;-49
2021/03/04 03:35:29;;;;;;;5.60;2.97;;;24.30;54.80;;;;;;4157238;28;21396;-50
2021/03/04 03:37:32;;;;;;;3.05;2.38;;;24.40;54.70;;;;;;4160979;28;20040;-46
2021/03/04 03:39:34;;;;;;;3.97;2.33;;;24.40;54.60;;;;;;4158549;28;20060;-51
2021/03/04 03:41:40;;;;;;;5.10;2.80;;;24.40;54.60;;;;;;4154590;28;20155;-49
2021/03/04 03:43:43;;;;;;;4.22;2.53;;;24.40;54.70;;;;;;4162241;28;20325;-51
2021/03/04 03:45:48;;;;;;;4.20;2.42;;;24.50;54.60;;;;;;4153608;28;20040;-51
2021/03/04 03:47:51;;;;;;;3.78;2.60;;;24.50;54.60;;;;;;4157297;28;20122;-50
2021/03/04 03:49:55;;;;;;;5.03;2.97;;;24.50;54.40;;;;;;4158648;28;20412;-50
2021/03/04 03:52:01;;;;;;;5.68;2.35;;;24.60;54.90;;;;;;4159985;28;20050;-48
2021/03/04 03:54:05;;;;;;;6.40;2.92;;;24.60;54.50;;;;;;4158504;28;20052;-53
2021/03/04 03:56:07;;;;;;;3.83;2.65;;;24.60;54.60;;;;;;4158029;28;20330;-50
2021/03/04 03:58:11;;;;;;;5.43;2.50;;;24.60;54.50;;;;;;4159055;28;21350;-50
2021/03/04 04:00:14;;;;;;;4.80;2.50;;;24.70;54.70;;;;;;4156775;28;20052;-49
2021/03/04 04:02:16;;;;;;;5.97;2.45;;;24.70;54.60;;;;;;4157195;28;20056;-49
2021/03/04 04:04:19;;;;;;;4.10;2.80;;;24.80;54.60;;;;;;4164615;28;20074;-47
2021/03/04 04:06:21;;;;;;;4.82;2.90;;;24.80;54.50;;;;;;4166819;28;20235;-55
2021/03/04 04:08:25;;;;;;;4.47;2.50;;;24.80;54.50;;;;;;4162523;28;20045;-50
2021/03/04 04:10:30;;;;;;;4.22;2.45;;;24.90;54.40;;;;;;4168811;28;20234;-51
2021/03/04 04:12:32;;;;;;;4.05;2.40;;;25.00;54.40;;;;;;4165953;28;20049;-53
2021/03/04 04:14:35;;;;;;;4.93;2.60;;;25.00;54.90;;;;;;4165793;28;20043;-47
2021/03/04 04:16:37;;;;;;;3.95;2.28;;;25.10;54.30;;;;;;4157848;28;20032;-51
2021/03/04 04:18:40;;;;;;;4.72;2.83;;;25.10;54.20;;;;;;4153721;28;20131;-53
2021/03/04 04:20:43;;;;;;;4.50;2.47;;;25.20;54.30;;;;;;4154977;28;20364;-46
2021/03/04 04:22:46;;;;;;;4.40;2.87;;;25.20;54.20;;;;;;4155561;28;20469;-47
2021/03/04 04:24:48;;;;;;;3.88;2.45;;;25.30;54.10;;;;;;4155611;28;20118;-50
2021/03/04 04:26:50;;;;;;;4.72;2.70;;;25.30;54.00;;;;;;4155475;28;20075;-53
2021/03/04 04:28:52;;;;;;;3.95;2.63;;;25.40;53.90;;;;;;4151903;28;20572;-50
2021/03/04 04:30:55;;;;;;;3.83;2.50;;;25.40;53.90;;;;;;4155052;28;21098;-48
2021/03/04 04:32:57;;;;;;;5.00;2.58;;;25.50;53.80;;;;;;4153414;28;20459;-49
2021/03/04 04:34:59;;;;;;;4.05;2.70;;;25.50;53.90;;;;;;4153184;28;20339;-52
2021/03/04 04:37:01;;;;;;;4.07;2.37;;;25.60;53.70;;;;;;4156590;28;20044;-52
2021/03/04 04:39:04;;;;;;;4.30;2.60;;;25.60;53.40;;;;;;4155902;28;20423;-52
2021/03/04 04:41:06;;;;;;;5.38;2.95;;;25.60;53.50;;;;;;4156684;28;20119;-55
2021/03/04 04:43:09;;;;;;;4.20;2.50;;;25.70;53.40;;;;;;4156587;28;20701;-47
2021/03/04 04:45:11;;;;;;;3.67;2.58;;;25.70;53.40;;;;;;4152103;28;21102;-52
2021/03/04 04:47:13;;;;;;;4.83;2.47;;;25.80;53.20;;;;;;4155411;28;20052;-51
2021/03/04 04:49:15;;;;;;;3.85;2.78;;;25.90;53.20;;;;;;4159637;28;20066;-51
2021/03/04 04:51:17;;;;;;;4.75;2.70;;;25.90;53.10;;;;;;4157493;28;20079;-45
2021/03/04 04:53:19;;;;;;;3.78;2.50;;;26.00;53.00;;;;;;4157333;28;21377;-45
2021/03/04 04:55:21;;;;;;;3.50;2.50;;;26.00;52.90;;;;;;4159853;28;20032;-52
2021/03/04 04:57:25;;;;;;;3.35;2.40;;;26.00;52.90;;;;;;4151913;28;20118;-50
2021/03/04 04:59:27;;;;;;;4.32;2.70;;;26.10;52.80;;;;;;4149170;28;20036;-51
2021/03/04 05:01:29;;;;;;;4.40;2.50;;;26.10;52.70;;;;;;4150282;28;20056;-54
2021/03/04 05:03:31;;;;;;;4.45;2.78;;;26.20;52.70;;;;;;4148976;28;20082;-50
2021/03/04 05:05:33;;;;;;;4.45;2.70;;;26.20;52.70;;;;;;4148868;28;20582;-49
2021/03/04 05:07:36;;;;;;;5.25;2.55;;;26.30;52.60;;;;;;4152127;28;20442;-45
2021/03/04 05:09:38;;;;;;;5.05;2.65;;;26.30;52.50;;;;;;4147944;28;20041;-48
2021/03/04 05:11:40;;;;;;;3.45;2.72;;;26.40;52.40;;;;;;4152088;28;20048;-49
2021/03/04 05:13:44;;;;;;;3.60;2.75;;;26.40;52.30;;;;;;4153319;28;20135;-49
2021/03/04 05:15:46;;;;;;;3.85;2.67;;;26.50;52.20;;;;;;4149082;28;20048;-50
2021/03/04 05:17:48;;;;;;;4.38;2.70;;;26.60;52.30;;;;;;4151262;28;20131;-48
2021/03/04 05:19:50;;;;;;;4.63;2.90;;;26.60;52.00;;;;;;4154095;28;20036;-52
2021/03/04 05:21:57;;;;;;;4.30;3.00;;;26.70;52.10;;;;;;4154013;28;20147;-49
2021/03/04 05:23:59;;;;;;;4.25;2.80;;;26.70;51.90;;;;;;4150314;28;20056;-49
2021/03/04 05:26:01;;;;;;;4.00;2.80;;;26.80;52.00;;;;;;4152439;28;20147;-51
2021/03/04 05:28:03;;;;;;;4.43;2.57;;;26.80;51.80;;;;;;4153636;28;20042;-47
2021/03/04 05:30:07;;;;;;;3.40;2.70;;;26.80;51.90;;;;;;4146247;28;20320;-53
2021/03/04 05:32:12;;;;;;;4.10;2.85;;;26.80;51.90;;;;;;4149530;28;20037;-49
2021/03/04 05:34:14;;;;;;;4.43;2.75;;;26.80;51.90;;;;;;4153508;28;20184;-51
2021/03/04 05:36:16;;;;;;;3.72;2.83;;;26.90;51.90;;;;;;4147791;28;20043;-48
2021/03/04 05:38:18;;;;;;;4.25;2.85;;;26.90;51.80;;;;;;4153361;28;20135;-50
2021/03/04 05:40:20;;;;;;;3.67;2.67;;;27.00;51.80;;;;;;4153819;28;21393;-47
2021/03/04 05:42:23;;;;;;;4.25;2.88;;;27.00;51.80;;;;;;4154094;28;21794;-50
2021/03/04 05:44:26;;;;;;;4.20;3.10;;;27.00;52.40;;;;;;4154993;28;20037;-48
2021/03/04 05:46:29;;;;;;;4.43;2.75;;;27.10;52.50;;;;;;4157610;28;20055;-51
2021/03/04 05:48:33;;;;;;;;;;;27.10;51.70;;;;;;4157657;28;21708;-50
2021/03/04 05:50:43;;;;;;;4.13;2.95;;;27.20;51.60;;;;;;4153889;28;20851;-51
2021/03/04 05:53:05;;;;;;;3.95;2.88;;;27.30;51.40;;;;;;4159602;28;20566;-53
2021/03/04 05:55:07;;;;;;;6.28;2.95;;;27.30;51.50;;;;;;4157225;28;20052;-52
2021/03/04 05:57:09;;;;;;;4.57;3.03;;;27.30;52.00;;;;;;4154461;28;20125;-54
2021/03/04 05:59:13;;;;;;;3.97;3.05;;;27.40;51.40;;;;;;4157119;28;20153;-54
2021/03/04 06:01:16;;;;;;;4.43;2.95;;;27.40;51.30;;;;;;4161334;28;20039;-54
2021/03/04 06:03:20;;;;;;;3.13;2.65;;;27.50;51.20;;;;;;4154090;28;20188;-50
2021/03/04 06:05:22;;;;;;;4.35;2.80;;;27.60;51.10;;;;;;4157139;28;20408;-48
2021/03/04 06:07:25;;;;;;;3.40;2.95;;;27.60;51.20;;;;;;4158458;28;20796;-48
2021/03/04 06:09:31;;;;;;;3.60;2.70;;;27.70;51.10;;;;;;4158557;28;20041;-51
2021/03/04 06:11:39;;;;;;;4.10;2.50;;;27.70;51.10;;;;;;4159241;28;21216;-51
2021/03/04 06:13:41;;;;;;;4.03;2.80;;;27.70;51.10;;;;;;4161294;28;20035;-52
2021/03/04 06:15:43;;;;;;;3.05;2.60;;;27.80;51.20;;;;;;4155087;28;20773;-49
2021/03/04 06:17:59;;;;;;;3.80;2.87;;;27.80;51.00;;;;;;4157913;28;20048;-52
2021/03/04 06:20:05;;;;;;;3.50;2.80;;;27.90;51.20;;;;;;4160449;28;20036;-52
2021/03/04 06:22:07;;;;;;;2.95;2.65;;;27.90;51.00;;;;;;4161128;28;20040;-48
2021/03/04 06:24:16;;;;;;;4.85;3.45;;;27.90;51.00;;;;;;4157446;28;21177;-50
2021/03/04 06:26:41;;;;;;;3.72;3.15;;;28.00;51.00;;;;;;4155414;28;20067;-50
2021/03/04 06:28:43;;;;;;;3.25;2.95;;;28.10;51.10;;;;;;4156826;28;20032;-51
2021/03/04 06:30:45;;;;;;;3.95;3.35;;;28.10;51.30;;;;;;4156972;28;20036;-50
2021/03/04 06:33:00;;;;;;;3.50;3.17;;;28.10;50.80;;;;;;4157591;28;20120;-51
2021/03/04 06:35:11;;;;;;;3.30;3.00;;;28.20;50.80;;;;;;4158228;28;20277;-49
2021/03/04 06:37:13;;;;;;;3.22;2.90;;;28.20;50.70;;;;;;4160109;28;20048;-53
2021/03/04 06:39:15;;;;;;;3.58;2.97;;;28.30;50.70;;;;;;4158940;28;20083;-52
2021/03/04 06:41:21;;;;;;;3.40;2.90;;;28.30;50.70;;;;;;4154036;28;20052;-46
2021/03/04 06:43:26;;;;;;;3.83;3.42;;;28.30;50.50;;;;;;4157238;28;20309;-49
2021/03/04 06:45:35;;;;;;;4.40;3.42;;;28.40;50.50;;;;;;4155733;28;20037;-52
2021/03/04 06:47:37;;;;;;;4.03;3.08;;;28.40;50.50;;;;;;4154805;28;21516;-53
2021/03/04 06:49:42;;;;;;;5.43;3.47;;;28.40;50.50;;;;;;4154861;28;20120;-50
2021/03/04 06:51:45;;;;;;;3.75;3.05;;;28.50;50.50;;;;;;4155855;28;20152;-49
2021/03/04 06:53:51;;;;;;;;;;;28.50;50.50;;;;;;4155216;28;21548;-47
2021/03/04 06:55:53;;;;;;;3.83;3.22;;;28.50;50.50;;;;;;4154183;28;20019;-47
2021/03/04 06:58:00;;;;;;;3.72;3.13;;;28.60;50.50;;;;;;4156190;28;20533;-51
2021/03/04 07:00:03;;;;;;;3.90;3.00;;;28.60;50.50;;;;;;4155437;28;20048;-51
2021/03/04 07:02:05;;;;;;;4.65;3.30;;;28.60;50.40;;;;;;4152287;28;20048;-52
2021/03/04 07:04:16;;;;;;;4.25;3.70;;;28.60;50.50;;;;;;4153267;28;20410;-48
2021/03/04 07:06:23;;;;;;;4.10;3.65;;;28.60;51.00;;;;;;4155038;28;20037;-53
2021/03/04 07:08:26;;;;;;;4.70;3.35;;;28.70;50.60;;;;;;4160788;28;20094;-51
2021/03/04 07:10:29;;;;;;;;;;;28.70;50.60;;;;;;4157094;28;20389;-52
2021/03/04 07:12:33;;;;;;;4.75;3.08;;;28.70;50.60;;;;;;4157005;28;20324;-47
2021/03/04 07:14:36;;;;;;;3.80;2.90;;;28.70;50.60;;;;;;4158370;28;20044;-48
2021/03/04 07:16:45;;;;;;;4.05;3.13;;;28.70;50.60;;;;;;4160468;28;20120;-51
2021/03/04 07:18:59;;;;;;;4.30;3.53;;;28.70;50.70;;;;;;4159087;28;20048;-50
2021/03/04 07:21:03;;;;;;;3.90;2.70;;;28.70;50.80;;;;;;4160109;28;20043;-50
2021/03/04 07:23:06;;;;;;;3.20;2.75;;;28.70;50.80;;;;;;4159360;28;20036;-50
2021/03/04 07:25:10;;;;;;;3.65;2.50;;;28.70;50.90;;;;;;4159934;28;20043;-50
2021/03/04 07:27:16;;;;;;;3.20;2.70;;;28.70;50.90;;;;;;4156270;28;20507;-47
2021/03/04 07:29:21;;;;;;;3.38;2.63;;;28.70;50.90;;;;;;4151787;28;20157;-54
2021/03/04 07:31:23;;;;;;;3.28;2.80;;;28.70;51.10;;;;;;4156034;28;20204;-52
2021/03/04 07:33:27;;;;;;;4.05;2.55;;;28.70;51.10;;;;;;4155656;28;20041;-47
2021/03/04 07:35:30;;;;;;;3.10;2.40;;;28.70;51.20;;;;;;4155748;28;20917;-50
2021/03/04 07:37:35;;;;;;;3.47;2.28;;;28.70;51.30;;;;;;4158920;28;21236;-50
2021/03/04 07:39:39;;;;;;;2.85;2.10;;;28.60;51.20;;;;;;4158126;28;20068;-48
2021/03/04 07:41:46;;;;;;;2.58;1.92;;;28.60;51.30;;;;;;4159428;28;20490;-54
2021/03/04 07:43:58;;;;;;;3.78;2.10;;;28.60;51.40;;;;;;4161142;28;20086;-49
2021/03/04 07:46:00;;;;;;;4.15;2.30;;;28.50;51.50;;;;;;4158395;28;20485;-47
2021/03/04 07:48:09;;;;;;;2.78;2.20;;;28.50;51.50;;;;;;4157262;28;20488;-53
2021/03/04 07:50:25;;;;;;;2.88;2.10;;;28.50;51.60;;;;;;4158843;28;20047;-53
2021/03/04 07:52:27;;;;;;;3.42;2.50;;;28.50;51.80;;;;;;4157369;28;20040;-47
2021/03/04 07:54:30;;;;;;;2.67;2.00;;;28.50;51.80;;;;;;4154731;28;20482;-50
2021/03/04 07:56:32;;;;;;;3.67;2.20;;;28.50;51.90;;;;;;4158033;28;21763;-48
2021/03/04 07:58:38;;;;;;;4.10;2.20;;;28.40;51.90;;;;;;4162007;28;21477;-51
2021/03/04 08:00:41;;;;;;;3.65;2.58;;;28.40;52.00;;;;;;4156115;28;20033;-49
2021/03/04 08:02:44;;;;;;;3.67;2.33;;;28.40;52.10;;;;;;4148767;28;20571;-52
2021/03/04 08:04:46;;;;;;;3.85;2.20;;;28.40;52.20;;;;;;4153247;28;20054;-48
2021/03/04 08:06:50;;;;;;;3.03;2.20;;;28.40;52.30;;;;;;4151302;28;20050;-49
2021/03/04 08:08:52;;;;;;;3.08;2.10;;;28.30;52.30;;;;;;4145628;28;20032;-49
2021/03/04 08:10:54;;;;;;;4.00;2.50;;;28.30;52.40;;;;;;4152426;28;20040;-50
2021/03/04 08:13:00;;;;;;;5.13;2.30;;;28.30;52.50;;;;;;4153792;28;20313;-47
2021/03/04 08:15:02;;;;;;;3.47;2.45;;;28.30;52.50;;;;;;4147727;28;20041;-46
2021/03/04 08:17:04;;;;;;;3.17;2.20;;;28.30;52.70;;;;;;4150909;28;20079;-51
2021/03/04 08:19:06;;;;;;;4.22;2.20;;;28.20;52.60;;;;;;4165841;28;21833;-46
2021/03/04 08:21:09;;;;;;;3.83;2.20;;;28.20;52.80;;;;;;4152046;28;20040;-47
2021/03/04 08:23:22;;;;;;;3.20;2.33;;;28.20;52.90;;;;;;4152616;28;20502;-50
2021/03/04 08:25:32;;;;;;;5.40;2.20;;;28.20;52.90;;;;;;4153993;28;20894;-51
2021/03/04 08:27:40;;;;;;;4.13;2.40;;;28.20;53.00;;;;;;4155212;28;20060;-53
2021/03/04 08:29:49;;;;;;;4.95;2.28;;;28.10;53.10;;;;;;4156471;28;20195;-47
2021/03/04 08:31:55;;;;;;;3.58;2.33;;;28.10;53.10;;;;;;4157388;28;20560;-48
2021/03/04 08:33:57;;;;;;;3.20;2.30;;;28.10;53.20;;;;;;4157477;28;20036;-50
2021/03/04 08:36:01;;;;;;;3.83;2.47;;;28.10;53.20;;;;;;4158920;28;20422;-52
2021/03/04 08:38:05;;;;;;;4.38;2.38;;;28.10;53.20;;;;;;4155872;28;20032;-52
2021/03/04 08:40:09;;;;;;;4.03;2.55;;;28.10;52.70;;;;;;4160379;28;20056;-50
2021/03/04 08:42:11;;;;;;;4.20;2.40;;;28.10;53.20;;;;;;4154108;28;20053;-48
2021/03/04 08:44:18;;;;;;;3.30;2.30;;;28.10;53.30;;;;;;4153472;28;20064;-47
2021/03/04 08:46:20;;;;;;;3.88;2.50;;;28.00;53.30;;;;;;4158535;28;20036;-50
2021/03/04 08:48:25;;;;;;;3.50;2.42;;;28.00;53.40;;;;;;4156236;28;20040;-52
2021/03/04 08:50:36;;;;;;;4.03;2.50;;;28.00;54.00;;;;;;4154318;28;20053;-49
2021/03/04 08:52:42;;;;;;;4.43;2.47;;;28.00;53.50;;;;;;4157139;28;20460;-48
2021/03/04 08:54:49;;;;;;;4.10;2.75;;;28.00;53.60;;;;;;4151561;28;20089;-51
2021/03/04 08:57:05;;;;;;;3.35;2.30;;;28.00;53.70;;;;;;4153218;28;21373;-48
2021/03/04 08:59:07;;;;;;;4.03;2.40;;;27.90;53.60;;;;;;4151922;28;20325;-50
2021/03/04 09:01:11;;;;;;;3.75;2.40;;;27.90;53.60;;;;;;4157995;28;20377;-53
2021/03/04 09:03:13;;;;;;;3.80;2.50;;;27.90;53.70;;;;;;4157554;28;20063;-47
2021/03/04 09:05:24;;;;;;;4.43;2.63;;;27.90;54.30;;;;;;4155708;28;20057;-49
2021/03/04 09:07:46;;;;;;;3.53;2.30;;;27.90;53.80;;;;;;4158337;28;20449;-47
2021/03/04 09:09:48;;;;;;;3.20;2.13;;;27.90;53.90;;;;;;4156510;28;20044;-53
2021/03/04 09:11:50;;;;;;;4.40;2.50;;;27.90;53.90;;;;;;4155730;28;20056;-51
2021/03/04 09:13:59;;;;;;;5.00;2.50;;;27.90;53.90;;;;;;4155945;28;20052;-50
2021/03/04 09:16:06;;;;;;;3.55;2.30;;;27.90;53.90;;;;;;4159579;28;20025;-48
2021/03/04 09:18:09;;;;;;;4.65;2.63;;;27.80;53.90;;;;;;4146794;28;20049;-50
2021/03/04 09:20:16;;;;;;;4.93;2.20;;;27.80;54.00;;;;;;4144327;28;20069;-48
2021/03/04 09:22:18;;;;;;;3.42;2.33;;;27.80;54.00;;;;;;4159009;28;20355;-49
2021/03/04 09:24:21;;;;;;;4.05;2.53;;;27.80;54.10;;;;;;4167042;28;20053;-48
2021/03/04 09:26:23;;;;;;;4.80;2.50;;;27.80;54.10;;;;;;4163096;28;20044;-51
2021/03/04 09:28:26;;;;;;;2.90;2.20;;;27.80;54.20;;;;;;4173341;28;20036;-47
2021/03/04 09:30:30;;;;;;;5.20;2.60;;;27.80;54.20;;;;;;4170837;28;20044;-51
2021/03/04 09:32:33;;;;;;;4.18;2.65;;;27.80;54.20;;;;;;4169036;28;20051;-49
2021/03/04 09:34:38;;;;;;;3.38;2.55;;;27.70;54.20;;;;;;4171518;28;20565;-50
2021/03/04 09:36:40;;;;;;;4.15;2.40;;;27.70;54.20;;;;;;4157197;28;20048;-50
2021/03/04 09:38:55;;;;;;;4.60;2.58;;;27.80;54.30;;;;;;4155049;28;20094;-51
2021/03/04 09:41:17;;;;;;;2.97;2.28;;;27.80;54.30;;;;;;4145093;28;20033;-47
2021/03/04 09:43:22;;;;;;;6.30;2.38;;;27.80;54.40;;;;;;4157368;28;20130;-50
2021/03/04 09:45:24;;;;;;;3.97;2.40;;;27.70;54.30;;;;;;4155677;28;20057;-47
2021/03/04 09:47:30;;;;;;;3.55;2.30;;;27.70;54.30;;;;;;4157003;28;20044;-47
2021/03/04 09:49:37;;;;;;;4.45;2.67;;;27.70;54.40;;;;;;4156287;28;20378;-49
2021/03/04 09:51:41;;;;;;;4.18;2.40;;;27.70;54.40;;;;;;4157792;28;20050;-52
2021/03/04 09:53:48;;;;;;;4.80;2.50;;;27.70;54.50;;;;;;4155071;28;20029;-56
2021/03/04 09:55:51;;;;;;;5.43;2.95;;;27.60;54.50;;;;;;4134385;28;21570;-51
2021/03/04 09:57:53;;;;;;;4.95;2.65;;;27.60;54.80;;;;;;4122276;28;20504;-53
2021/03/04 09:59:55;;;;;;;5.47;2.53;;;27.70;54.90;;;;;;4153539;28;20140;-49
2021/03/04 10:01:58;;;;;;;5.68;2.60;;;27.70;55.30;;;;;;4147338;28;20121;-47
2021/03/04 10:04:04;;;;;;;;;;;27.60;55.70;;;;;;4156671;28;20040;-49
2021/03/04 10:06:19;;;;;;;60.55;6.13;;;27.60;56.60;;;;;;4152342;28;20443;-54
2021/03/04 10:08:21;;;;;;;40.22;5.15;;;27.60;57.40;;;;;;4155697;28;20491;-49
2021/03/04 10:10:23;;;;;;;35.03;4.63;;;27.70;57.60;;;;;;4154757;28;20039;-51
2021/03/04 10:12:26;;;;;;;26.80;4.60;;;27.70;57.60;;;;;;4156711;28;20515;-46
2021/03/04 10:14:28;;;;;;;18.48;4.20;;;27.60;57.50;;;;;;4153277;28;20041;-51
2021/03/04 10:16:30;;;;;;;18.20;3.55;;;27.60;57.60;;;;;;4155240;28;20121;-53
2021/03/04 10:18:32;;;;;;;19.50;3.65;;;27.60;57.50;;;;;;4153364;28;20043;-50
2021/03/04 10:20:36;;;;;;;7.63;2.72;;;27.60;57.70;;;;;;4153758;28;20506;-47
2021/03/04 10:22:38;;;;;;;12.20;2.65;;;27.60;57.80;;;;;;4156978;28;20045;-50
2021/03/04 10:24:40;;;;;;;18.67;2.63;;;27.60;58.00;;;;;;4153364;28;20671;-50
2021/03/04 10:26:43;;;;;;;20.38;3.42;;;27.60;58.50;;;;;;4169542;28;20246;-51
2021/03/04 10:28:45;;;;;;;7.60;2.50;;;27.60;58.20;;;;;;4155614;28;21393;-51
2021/03/04 10:30:47;;;;;;;5.37;2.10;;;27.60;58.00;;;;;;4122662;28;20919;-49
2021/03/04 10:32:49;;;;;;;8.43;2.00;;;27.60;58.20;;;;;;4155640;28;20942;-50
2021/03/04 10:34:51;;;;;;;5.82;1.65;;;27.60;58.10;;;;;;4143202;28;20832;-55
2021/03/04 10:36:53;;;;;;;13.80;2.25;;;27.60;58.00;;;;;;4154117;28;20060;-49
2021/03/04 10:38:56;;;;;;;4.95;2.08;;;27.60;58.20;;;;;;4151932;28;20361;-50
2021/03/04 10:40:58;;;;;;;5.35;1.92;;;27.60;58.20;;;;;;4154451;28;20029;-54
2021/03/04 10:43:00;;;;;;;5.55;1.90;;;27.60;58.20;;;;;;4153901;28;20037;-51
2021/03/04 10:45:08;;;;;;;4.55;1.50;;;27.60;58.20;;;;;;4152622;28;20076;-54
2021/03/04 10:47:10;;;;;;;5.55;1.90;;;27.60;58.20;;;;;;4151842;28;20584;-46
2021/03/04 10:49:12;;;;;;;3.42;1.48;;;27.60;58.30;;;;;;4155616;28;20033;-47